Firestone Park, Ohio
Current Conditions -  °F | °C
As of 11:31 AM on Saturday 22 Nov 2014 (Local Time) from KAKR Reporting Station
Haze Haze  
Wind Chill: 27°   Ceiling: 1300
Heat Index: 36°   Visibility: 6mi
Dew Point: 32°   Wind: 14mph
Humidity: 86%   Direction: 200°SSW
Pressure: 30.18"   Gusts: NA
Location:  41.0433°N, 81.5239°W
Report Text: KAKR 221631Z AUTO 20012KT 6SM BR SCT008 BKN013 OVC044 02/00 A3018 RMK AO2 RAB1557E06 P0000 I1000 T00220000
Loading
Personal Weather Stations






























Interactive Weather Map New forecast layout! Learn more

10-Day Weather Forecast

Advertisements
Track Severe Weather on mobile